Time;durP1;ratioP1;P1;durP2;ratioP2;P2;SDS_P1;SDS_P2;PMS_P1;PMS_P2;Temp;Humidity;BMP_temperature;BMP_pressure;BME280_temperature;BME280_humidity;BME280_pressure;Samples;Min_cycle;Max_cycle;Signal;HPM_P1;HPM_P2
2021/01/25 00:00:55;;;;;;;34.80;12.98;;;;;;;5.68;99.16;98196.03;3463622;28;20525;-52
2021/01/25 00:02:37;;;;;;;40.95;12.38;;;;;;;5.69;99.28;98196.88;3461534;28;20069;-53
2021/01/25 00:04:18;;;;;;;36.58;13.25;;;;;;;5.68;99.08;98195.19;3463366;28;20569;-54
2021/01/25 00:06:01;;;;;;;33.95;12.10;;;;;;;5.68;99.26;98197.75;3461944;28;20057;-52
2021/01/25 00:07:43;;;;;;;51.40;12.98;;;;;;;5.68;99.31;98201.19;3462172;28;20502;-52
2021/01/25 00:09:24;;;;;;;28.95;11.80;;;;;;;5.66;99.04;98199.44;3462378;28;20049;-52
2021/01/25 00:11:05;;;;;;;61.17;14.77;;;;;;;5.66;99.36;98199.44;3464223;28;20069;-51
2021/01/25 00:12:47;;;;;;;37.22;13.57;;;;;;;5.66;99.23;98196.84;3462546;28;20045;-52
2021/01/25 00:14:29;;;;;;;45.88;14.27;;;;;;;5.65;99.21;98203.72;3463388;28;20065;-52
2021/01/25 00:16:10;;;;;;;85.53;16.67;;;;;;;5.65;99.33;98206.28;3463820;28;20074;-53
2021/01/25 00:17:52;;;;;;;59.22;14.60;;;;;;;5.64;99.30;98196.88;3463292;28;20144;-53
2021/01/25 00:19:34;;;;;;;51.63;14.27;;;;;;;5.64;99.20;98189.16;3463950;28;20049;-53
2021/01/25 00:21:18;;;;;;;57.75;13.32;;;;;;;5.64;99.29;98195.97;3462327;28;20187;-53
2021/01/25 00:23:00;;;;;;;36.83;12.60;;;;;;;5.62;99.12;98190.81;3462732;28;20114;-52
2021/01/25 00:24:41;;;;;;;92.03;16.63;;;;;;;5.63;99.22;98192.56;3461275;28;20051;-53
2021/01/25 00:26:23;;;;;;;40.58;13.10;;;;;;;5.63;99.19;98197.69;3464019;28;20119;-54
2021/01/25 00:28:05;;;;;;;68.60;15.82;;;;;;;5.61;99.01;98194.25;3461665;28;20422;-52
2021/01/25 00:29:47;;;;;;;56.75;15.00;;;;;;;5.59;99.01;98200.22;3464735;28;20085;-54
2021/01/25 00:31:28;;;;;;;89.22;16.02;;;;;;;5.58;99.47;98199.38;3464039;28;20045;-53
2021/01/25 00:33:10;;;;;;;54.75;14.32;;;;;;;5.59;99.36;98200.22;3463232;28;20065;-53
2021/01/25 00:34:52;;;;;;;43.00;13.20;;;;;;;5.58;99.14;98188.22;3461888;28;20102;-50
2021/01/25 00:36:35;;;;;;;53.63;14.20;;;;;;;5.58;99.25;98185.66;3462678;28;20056;-53
2021/01/25 00:38:16;;;;;;;45.72;12.55;;;;;;;5.58;99.27;98183.94;3463105;28;20104;-50
2021/01/25 00:39:58;;;;;;;61.28;13.35;;;;;;;5.57;99.23;98177.06;3465111;28;20502;-52
2021/01/25 00:41:40;;;;;;;48.22;12.45;;;;;;;5.58;99.27;98178.78;3454990;28;20058;-53
2021/01/25 00:43:23;;;;;;;37.15;11.88;;;;;;;5.56;99.03;98165.91;3462302;28;20052;-53
2021/01/25 00:45:07;;;;;;;36.28;11.32;;;;;;;5.55;99.26;98164.19;3466379;28;20053;-53
2021/01/25 00:46:48;;;;;;;;;;;;;;;5.54;99.16;98159.88;3467726;28;20049;-54
2021/01/25 00:48:30;;;;;;;48.50;12.38;;;;;;;5.53;99.26;98150.44;3468957;28;20443;-53
2021/01/25 00:50:12;;;;;;;27.55;10.70;;;;;;;5.53;99.17;98159.88;3466083;28;20057;-53
2021/01/25 00:51:54;;;;;;;28.23;9.93;;;;;;;5.53;99.31;98159.88;3456300;28;20053;-54
2021/01/25 00:53:35;;;;;;;33.13;11.07;;;;;;;5.53;99.27;98152.16;3461258;28;20042;-53
2021/01/25 00:55:17;;;;;;;52.55;13.57;;;;;;;5.52;99.16;98151.31;3468152;28;20461;-53
2021/01/25 00:56:59;;;;;;;26.08;10.52;;;;;;;5.52;99.28;98147.88;3465452;28;20131;-53
2021/01/25 00:58:41;;;;;;;41.90;12.50;;;;;;;5.53;99.17;98152.16;3465907;28;20053;-52
2021/01/25 01:00:24;;;;;;;63.08;12.57;;;;;;;5.51;99.30;98149.56;3466932;28;20119;-53
2021/01/25 01:02:05;;;;;;;37.78;12.38;;;;;;;5.51;99.34;98143.56;3459267;28;20053;-52
2021/01/25 01:03:47;;;;;;;48.25;12.65;;;;;;;5.51;99.26;98146.16;3457171;28;20046;-54
2021/01/25 01:05:28;;;;;;;53.80;13.18;;;;;;;5.52;99.32;98147.88;3465634;28;20556;-52
2021/01/25 01:07:11;;;;;;;31.75;10.30;;;;;;;5.50;99.40;98141.84;3468119;28;20054;-54
2021/01/25 01:08:52;;;;;;;43.67;11.85;;;;;;;5.51;99.33;98149.56;3467371;28;20056;-53
2021/01/25 01:10:34;;;;;;;54.92;12.88;;;;;;;5.50;99.19;98155.56;3469996;28;20080;-53
2021/01/25 01:12:15;;;;;;;40.97;11.20;;;;;;;5.49;99.16;98151.28;3467137;28;20469;-52
2021/01/25 01:13:57;;;;;;;19.95;9.25;;;;;;;5.49;99.22;98151.28;3470535;28;20081;-52
2021/01/25 01:15:39;;;;;;;41.78;10.90;;;;;;;5.49;99.22;98142.69;3465712;28;20103;-51
2021/01/25 01:17:20;;;;;;;27.52;9.00;;;;;;;5.48;99.22;98141.84;3456905;28;20049;-54
2021/01/25 01:19:02;;;;;;;25.90;10.13;;;;;;;5.49;99.42;98145.28;3463278;28;20072;-53
2021/01/25 01:20:44;;;;;;;23.25;9.05;;;;;;;5.48;99.07;98139.28;3470047;28;20049;-54
2021/01/25 01:22:26;;;;;;;24.52;8.85;;;;;;;5.49;99.19;98143.56;3467626;28;20049;-52
2021/01/25 01:24:08;;;;;;;25.63;8.75;;;;;;;5.50;99.18;98140.16;3459225;28;20056;-52
2021/01/25 01:25:50;;;;;;;35.95;9.38;;;;;;;5.52;99.37;98142.75;3461526;28;20057;-53
2021/01/25 01:27:32;;;;;;;52.08;11.55;;;;;;;5.52;99.34;98141.00;3468292;28;20061;-52
2021/01/25 01:29:14;;;;;;;27.73;9.18;;;;;;;5.52;99.45;98129.88;3465521;28;20045;-54
2021/01/25 01:30:55;;;;;;;38.25;11.23;;;;;;;5.52;99.29;98141.00;3462190;28;20061;-54
2021/01/25 01:32:37;;;;;;;69.45;13.32;;;;;;;5.50;99.25;98135.00;3461740;28;20053;-54
2021/01/25 01:34:19;;;;;;;61.17;12.32;;;;;;;5.50;99.08;98142.72;3465857;28;20060;-54
2021/01/25 01:36:00;;;;;;;46.33;11.68;;;;;;;5.50;99.18;98141.84;3470495;28;20053;-52
2021/01/25 01:37:43;;;;;;;30.50;10.25;;;;;;;5.48;99.18;98139.28;3467029;28;20081;-53
2021/01/25 01:39:24;;;;;;;36.45;9.05;;;;;;;5.49;99.45;98145.28;3470907;28;20111;-54
2021/01/25 01:41:06;;;;;;;58.53;11.43;;;;;;;5.49;99.31;98147.84;3465555;28;20060;-52
2021/01/25 01:42:48;;;;;;;32.95;10.18;;;;;;;5.48;99.36;98149.56;3470366;28;20470;-50
2021/01/25 01:44:30;;;;;;;42.08;12.15;;;;;;;5.48;99.38;98144.41;3467621;28;20053;-53
2021/01/25 01:46:12;;;;;;;30.83;11.63;;;;;;;5.48;99.40;98144.41;3469417;28;20442;-52
2021/01/25 01:47:57;;;;;;;105.95;16.13;;;;;;;5.47;99.27;98145.25;3468871;28;20426;-51
2021/01/25 01:49:40;;;;;;;47.72;13.48;;;;;;;5.48;99.51;98148.69;3468007;28;20568;-53
2021/01/25 01:51:22;;;;;;;34.20;12.77;;;;;;;5.47;99.32;98144.41;3467330;28;20057;-53
2021/01/25 01:53:04;;;;;;;42.20;13.73;;;;;;;5.46;99.25;98143.50;3467649;28;20049;-51
2021/01/25 01:54:47;;;;;;;47.97;11.13;;;;;;;5.47;99.37;98144.41;3469604;28;20045;-54
2021/01/25 01:56:29;;;;;;;30.08;10.35;;;;;;;5.46;99.33;98150.38;3467150;28;20049;-54
2021/01/25 01:58:11;;;;;;;57.03;12.30;;;;;;;5.47;99.55;98139.25;3469293;28;20065;-51
2021/01/25 01:59:53;;;;;;;55.50;12.52;;;;;;;5.45;99.33;98143.53;3466368;28;20049;-53
2021/01/25 02:01:35;;;;;;;62.92;13.90;;;;;;;5.45;99.41;98135.81;3469791;28;20143;-54
2021/01/25 02:03:18;;;;;;;43.05;12.38;;;;;;;5.44;99.43;98134.94;3466857;28;20111;-54
2021/01/25 02:05:01;;;;;;;44.15;13.05;;;;;;;5.44;99.25;98134.94;3469959;28;20469;-52
2021/01/25 02:06:43;;;;;;;87.45;16.15;;;;;;;5.43;99.20;98140.94;3464236;28;20060;-53
2021/01/25 02:08:26;;;;;;;53.28;13.70;;;;;;;5.42;99.51;98140.91;3456706;28;20060;-53
2021/01/25 02:10:09;;;;;;;84.32;16.17;;;;;;;5.41;99.55;98145.19;3464506;28;20525;-54
2021/01/25 02:11:52;;;;;;;38.95;11.30;;;;;;;5.43;99.58;98140.06;3455832;28;20112;-54
2021/01/25 02:13:35;;;;;;;33.03;10.77;;;;;;;5.43;99.31;98143.50;3464267;28;20036;-49
2021/01/25 02:15:18;;;;;;;79.18;14.85;;;;;;;5.43;99.56;98138.38;3468398;28;20145;-51
2021/01/25 02:17:00;;;;;;;37.05;12.00;;;;;;;5.45;99.30;98148.69;3467811;28;20138;-49
2021/01/25 02:18:42;;;;;;;36.70;12.05;;;;;;;5.45;99.38;98148.69;3458028;28;20050;-53
2021/01/25 02:20:29;;;;;;;43.28;12.27;;;;;;;5.46;99.29;98150.38;3463267;28;20045;-52
2021/01/25 02:22:27;;;;;;;71.55;14.60;;;;;;;5.44;99.40;98147.78;3469025;28;20084;-51
2021/01/25 02:24:23;;;;;;;55.92;15.13;;;;;;;5.44;99.56;98152.94;3465939;28;20088;-53
2021/01/25 02:26:15;;;;;;;63.13;13.65;;;;;;;5.43;99.44;98160.63;3458159;28;20046;-53
2021/01/25 02:28:01;;;;;;;72.90;14.82;;;;;;;5.43;99.54;98158.06;3465467;28;20064;-53
2021/01/25 02:29:43;;;;;;;47.05;14.00;;;;;;;5.44;99.34;98159.78;3456180;28;20057;-52
2021/01/25 02:31:26;;;;;;;72.30;14.70;;;;;;;5.44;99.52;98167.50;3464459;28;20046;-52
2021/01/25 02:33:10;;;;;;;54.72;12.43;;;;;;;5.43;99.46;98156.38;3465487;28;20111;-49
2021/01/25 02:34:54;;;;;;;55.38;13.75;;;;;;;5.42;99.31;98152.06;3467243;28;20049;-51
2021/01/25 02:36:36;;;;;;;55.28;13.75;;;;;;;5.42;99.37;98166.63;3468160;28;20088;-53
2021/01/25 02:38:19;;;;;;;74.78;15.07;;;;;;;5.42;99.46;98161.50;3467157;28;20426;-54
2021/01/25 02:40:03;;;;;;;60.92;14.25;;;;;;;5.41;99.59;98157.19;3457822;28;20396;-52
2021/01/25 02:41:46;;;;;;;94.82;15.18;;;;;;;5.40;99.41;98156.34;3462532;28;20057;-52
2021/01/25 02:43:29;;;;;;;82.57;15.30;;;;;;;5.39;99.40;98159.75;3466880;28;20053;-53
2021/01/25 02:45:11;;;;;;;104.45;16.00;;;;;;;5.37;99.44;98157.16;3468225;28;20045;-53
2021/01/25 02:46:53;;;;;;;75.55;18.00;;;;;;;5.39;99.55;98161.47;3466816;28;20058;-53
2021/01/25 02:48:36;;;;;;;54.88;13.20;;;;;;;5.39;99.52;98162.31;3467104;28;20046;-54
2021/01/25 02:50:17;;;;;;;43.45;13.38;;;;;;;5.37;99.56;98167.44;3466117;28;20068;-54
2021/01/25 02:51:59;;;;;;;75.30;15.73;;;;;;;5.37;99.29;98167.44;3468738;28;20053;-54
2021/01/25 02:53:41;;;;;;;89.05;15.38;;;;;;;5.37;99.57;98164.84;3465953;28;20460;-54
2021/01/25 02:55:22;;;;;;;66.22;13.65;;;;;;;5.37;99.58;98174.28;3468814;28;20097;-54
2021/01/25 02:57:05;;;;;;;52.42;13.32;;;;;;;5.35;99.71;98173.41;3465695;28;20069;-52
2021/01/25 02:58:49;;;;;;;105.82;17.92;;;;;;;5.35;99.40;98166.56;3469614;28;20156;-51
2021/01/25 03:00:31;;;;;;;;;;;;;;;5.33;99.48;98170.84;3464348;28;20057;-52
2021/01/25 03:02:13;;;;;;;60.35;14.98;;;;;;;5.32;99.44;98174.25;3468863;28;20363;-51
2021/01/25 03:03:55;;;;;;;133.65;17.98;;;;;;;5.32;99.69;98174.25;3467146;28;20049;-54
2021/01/25 03:05:37;;;;;;;53.90;13.13;;;;;;;5.31;99.50;98169.97;3468205;28;20057;-54
2021/01/25 03:07:19;;;;;;;79.32;15.35;;;;;;;5.30;99.52;98169.94;3467289;28;20045;-54
2021/01/25 03:09:01;;;;;;;108.68;15.55;;;;;;;5.30;99.73;98168.22;3466620;28;20045;-54
2021/01/25 03:10:45;;;;;;;61.90;13.80;;;;;;;5.30;99.67;98165.66;3466277;28;20045;-54
2021/01/25 03:12:28;;;;;;;56.22;14.18;;;;;;;5.31;99.63;98169.09;3466164;28;20084;-54
2021/01/25 03:14:11;;;;;;;57.80;14.68;;;;;;;5.29;99.58;98176.78;3468274;28;20041;-54
2021/01/25 03:15:55;;;;;;;65.45;15.23;;;;;;;5.30;99.73;98170.78;3460385;28;20046;-52
2021/01/25 03:17:38;;;;;;;56.10;16.25;;;;;;;5.30;99.48;98175.06;3458073;28;20056;-52
2021/01/25 03:19:20;;;;;;;54.33;16.73;;;;;;;5.28;99.83;98162.22;3467396;28;20104;-50
2021/01/25 03:21:01;;;;;;;54.33;14.35;;;;;;;5.28;99.51;98153.63;3467886;28;20052;-53
2021/01/25 03:22:43;;;;;;;55.28;15.05;;;;;;;5.27;99.62;98159.63;3466548;28;20045;-54
2021/01/25 03:24:25;;;;;;;61.08;15.57;;;;;;;5.26;99.57;98158.75;3465143;28;20070;-54
2021/01/25 03:26:06;;;;;;;51.92;14.45;;;;;;;5.26;99.54;98155.34;3466035;28;20053;-54
2021/01/25 03:27:49;;;;;;;68.82;16.65;;;;;;;5.25;99.63;98157.03;3468716;28;20050;-53
2021/01/25 03:29:32;;;;;;;53.95;16.88;;;;;;;5.24;99.52;98154.47;3464050;28;20054;-54
2021/01/25 03:31:14;;;;;;;43.45;15.43;;;;;;;5.24;99.61;98150.19;3468503;28;20084;-54
2021/01/25 03:32:55;;;;;;;53.53;16.27;;;;;;;5.23;99.55;98151.00;3462806;28;20144;-52
2021/01/25 03:34:37;;;;;;;47.60;16.90;;;;;;;5.24;99.64;98151.91;3455529;28;20503;-53
2021/01/25 03:36:19;;;;;;;46.03;15.40;;;;;;;5.23;99.77;98145.88;3462565;28;20061;-52
2021/01/25 03:38:00;;;;;;;41.50;15.05;;;;;;;5.22;99.64;98133.00;3467634;28;20140;-54
2021/01/25 03:39:42;;;;;;;46.30;15.75;;;;;;;5.22;99.64;98135.56;3468084;28;20053;-52
2021/01/25 03:41:24;;;;;;;37.97;14.43;;;;;;;5.21;99.56;98132.16;3466007;28;20426;-53
2021/01/25 03:43:05;;;;;;;36.53;13.88;;;;;;;5.22;99.74;98130.44;3467397;28;20180;-53
2021/01/25 03:44:48;;;;;;;37.78;13.65;;;;;;;5.21;99.33;98126.16;3467132;28;20411;-53
2021/01/25 03:46:29;;;;;;;33.83;14.57;;;;;;;5.19;99.56;98126.13;3468172;28;20422;-53
2021/01/25 03:48:11;;;;;;;33.90;13.35;;;;;;;5.17;99.84;98117.53;3458342;28;20137;-52
2021/01/25 03:49:53;;;;;;;35.53;14.65;;;;;;;5.17;99.64;98114.97;3457987;28;20465;-53
2021/01/25 03:51:34;;;;;;;35.08;14.20;;;;;;;5.16;99.71;98120.94;3465614;28;20507;-52
2021/01/25 03:53:16;;;;;;;29.60;13.32;;;;;;;5.12;99.43;98112.34;3468031;28;20081;-51
2021/01/25 03:54:58;;;;;;;30.23;11.60;;;;;;;5.15;99.44;98120.09;3462627;28;20053;-50
2021/01/25 03:56:40;;;;;;;34.72;14.13;;;;;;;5.16;99.54;98115.81;3454578;28;20108;-52
2021/01/25 03:58:21;;;;;;;33.90;12.95;;;;;;;5.18;99.60;98124.38;3464432;28;20050;-50
2021/01/25 04:00:06;;;;;;;34.35;12.80;;;;;;;5.18;99.65;98124.38;3468598;28;20056;-53
2021/01/25 04:01:48;;;;;;;33.40;13.82;;;;;;;5.18;99.75;98121.81;3464214;28;20511;-53
2021/01/25 04:03:30;;;;;;;30.98;13.60;;;;;;;5.17;99.77;98126.09;3468504;28;20058;-53
2021/01/25 04:05:12;;;;;;;31.15;13.77;;;;;;;5.17;99.52;98120.97;3464805;28;20045;-52
2021/01/25 04:06:53;;;;;;;31.23;13.50;;;;;;;5.17;99.38;98133.81;3467833;28;20083;-52
2021/01/25 04:08:35;;;;;;;26.25;12.40;;;;;;;5.18;99.40;98126.97;3466908;28;20049;-52
2021/01/25 04:10:16;;;;;;;35.90;13.63;;;;;;;5.17;99.80;98123.53;3465888;28;20522;-53
2021/01/25 04:11:58;;;;;;;28.50;13.07;;;;;;;5.17;99.63;98126.09;3466921;28;20506;-52
2021/01/25 04:13:41;;;;;;;27.92;12.40;;;;;;;5.17;99.62;98133.81;3465068;28;20518;-53
2021/01/25 04:15:24;;;;;;;31.65;12.93;;;;;;;5.17;99.57;98126.09;3466499;28;20061;-53
2021/01/25 04:17:07;;;;;;;22.58;11.27;;;;;;;5.16;99.49;98121.84;3465188;28;20045;-51
2021/01/25 04:18:49;;;;;;;24.40;11.68;;;;;;;5.16;99.40;98129.53;3467688;28;20046;-54
2021/01/25 04:20:30;;;;;;;24.83;11.20;;;;;;;5.16;99.39;98123.53;3464950;28;20494;-53
2021/01/25 04:22:12;;;;;;;26.17;12.35;;;;;;;5.16;99.48;98124.41;3465239;28;20049;-51
2021/01/25 04:23:53;;;;;;;23.52;11.80;;;;;;;5.18;99.45;98129.53;3463482;28;20046;-52
2021/01/25 04:25:35;;;;;;;25.52;11.45;;;;;;;5.18;99.29;98130.41;3467653;28;20053;-51
2021/01/25 04:27:17;;;;;;;36.00;15.25;;;;;;;5.19;99.62;98131.28;3464691;28;20076;-54
2021/01/25 04:28:58;;;;;;;25.95;12.40;;;;;;;5.20;99.51;98125.28;3468625;28;20050;-53
2021/01/25 04:30:40;;;;;;;33.75;14.70;;;;;;;5.21;99.37;98129.56;3465478;28;20135;-52
2021/01/25 04:32:24;;;;;;;30.77;13.65;;;;;;;5.20;99.47;98130.44;3457351;28;20053;-52
2021/01/25 04:34:06;;;;;;;34.67;14.38;;;;;;;5.19;99.62;98123.56;3466203;28;20119;-52
2021/01/25 04:35:47;;;;;;;36.88;15.90;;;;;;;5.19;99.33;98128.69;3466543;28;20537;-52
2021/01/25 04:37:29;;;;;;;34.58;14.95;;;;;;;5.18;99.41;98129.53;3466736;28;20054;-51
2021/01/25 04:39:11;;;;;;;38.63;15.02;;;;;;;5.18;99.24;98132.09;3466748;28;20466;-50
2021/01/25 04:40:53;;;;;;;41.35;14.88;;;;;;;5.19;99.54;98128.69;3466538;28;20119;-52
2021/01/25 04:42:36;;;;;;;31.50;13.85;;;;;;;5.18;99.30;98115.00;3468968;28;20518;-53
2021/01/25 04:44:20;;;;;;;37.35;15.63;;;;;;;5.19;99.60;98118.41;3468220;28;20053;-51
2021/01/25 04:46:02;;;;;;;47.53;15.20;;;;;;;5.19;99.35;98115.84;3467756;28;20104;-54
2021/01/25 04:47:47;;;;;;;65.15;18.58;;;;;;;5.16;99.35;98108.97;3469594;28;20048;-53
2021/01/25 04:49:31;;;;;;;33.80;14.02;;;;;;;5.17;99.30;98109.84;3462409;28;20050;-52
2021/01/25 04:51:13;;;;;;;;;;;;;;;5.17;99.28;98109.84;3460050;28;20050;-52
2021/01/25 04:52:57;;;;;;;40.72;15.30;;;;;;;5.16;99.32;98111.56;3469944;28;19925;-52
2021/01/25 04:54:39;;;;;;;;;;;;;;;5.15;99.42;98114.97;3471021;28;20069;-53
2021/01/25 04:56:22;;;;;;;35.63;14.13;;;;;;;5.15;99.38;98121.81;3468868;28;20392;-53
2021/01/25 04:58:04;;;;;;;36.33;14.48;;;;;;;5.15;99.19;98116.66;3469495;28;20053;-54
2021/01/25 04:59:46;;;;;;;37.78;14.88;;;;;;;5.15;99.29;98111.53;3467036;28;20422;-54
2021/01/25 05:01:28;;;;;;;32.15;13.20;;;;;;;5.15;99.34;98116.66;3470921;28;20088;-54
2021/01/25 05:03:10;;;;;;;30.20;12.60;;;;;;;5.15;99.35;98107.25;3465435;28;20050;-53
2021/01/25 05:04:52;;;;;;;29.50;13.52;;;;;;;5.16;99.55;98105.53;3470437;28;20054;-52
2021/01/25 05:06:35;;;;;;;33.55;14.00;;;;;;;5.17;99.34;98099.56;3466905;28;20050;-53
2021/01/25 05:08:17;;;;;;;35.17;14.60;;;;;;;5.18;99.27;98109.84;3470251;28;20059;-50
2021/01/25 05:09:59;;;;;;;31.63;14.20;;;;;;;5.17;99.42;98113.25;3467540;28;20042;-50
2021/01/25 05:11:41;;;;;;;36.28;15.73;;;;;;;5.18;99.44;98111.53;3467517;28;20077;-53
2021/01/25 05:13:23;;;;;;;38.38;14.98;;;;;;;5.16;99.34;98103.84;3467714;28;20513;-54
2021/01/25 05:15:06;;;;;;;37.90;15.50;;;;;;;5.15;99.43;98104.69;3458152;28;20046;-53
2021/01/25 05:16:48;;;;;;;37.22;14.50;;;;;;;5.14;99.05;98094.38;3461464;28;20081;-54
2021/01/25 05:18:29;;;;;;;35.25;14.13;;;;;;;5.14;99.18;98099.50;3468975;28;20054;-54
2021/01/25 05:20:11;;;;;;;36.42;15.13;;;;;;;5.14;99.26;98097.78;3466336;28;20429;-54
2021/01/25 05:21:53;;;;;;;36.83;14.70;;;;;;;5.14;99.23;98102.09;3467340;28;20054;-54
2021/01/25 05:23:37;;;;;;;31.38;14.18;;;;;;;5.13;99.17;98108.06;3469260;28;20095;-54
2021/01/25 05:25:28;;;;;;;30.20;13.68;;;;;;;5.13;99.30;98108.94;3466758;28;20081;-53
2021/01/25 05:27:09;;;;;;;31.08;14.52;;;;;;;5.13;99.21;98121.78;3469131;28;20438;-52
2021/01/25 05:28:53;;;;;;;32.35;14.93;;;;;;;5.13;99.10;98118.34;3462257;28;20545;-51
2021/01/25 05:30:34;;;;;;;33.53;14.93;;;;;;;5.13;99.07;98123.47;3458333;28;20506;-49
2021/01/25 05:32:18;;;;;;;30.38;13.85;;;;;;;5.12;98.92;98120.06;3468243;28;20095;-52
2021/01/25 05:34:00;;;;;;;29.10;14.95;;;;;;;5.13;99.00;98120.91;3467583;28;20099;-52
2021/01/25 05:35:43;;;;;;;31.48;14.30;;;;;;;5.12;99.27;98132.06;3462670;28;20079;-52
2021/01/25 05:37:24;;;;;;;27.40;13.13;;;;;;;5.13;99.08;98128.63;3457439;28;20050;-51
2021/01/25 05:39:07;;;;;;;34.65;14.60;;;;;;;5.14;99.02;98138.06;3467007;28;20048;-52
2021/01/25 05:40:55;;;;;;;30.27;13.48;;;;;;;5.13;99.19;98123.47;3469250;28;20049;-52
2021/01/25 05:42:36;;;;;;;31.13;14.55;;;;;;;5.12;98.91;98126.91;3466647;28;20549;-52
2021/01/25 05:44:18;;;;;;;32.20;14.60;;;;;;;5.12;98.93;98132.91;3469379;28;20426;-49
2021/01/25 05:46:07;;;;;;;32.45;14.30;;;;;;;5.13;98.90;98138.91;3467774;28;20461;-50
2021/01/25 05:47:52;;;;;;;35.97;14.52;;;;;;;5.13;98.83;98133.75;3469406;28;20107;-48
2021/01/25 05:49:34;;;;;;;36.22;14.35;;;;;;;5.13;98.94;98133.75;3464146;28;20097;-51
2021/01/25 05:51:18;;;;;;;28.38;14.32;;;;;;;5.12;98.86;98132.91;3456340;28;20046;-51
2021/01/25 05:53:01;;;;;;;31.48;15.05;;;;;;;5.12;98.99;98139.75;3464740;28;20061;-50
2021/01/25 05:54:43;;;;;;;30.52;14.52;;;;;;;5.11;98.60;98143.16;3470239;28;20614;-49
2021/01/25 05:56:25;;;;;;;27.92;13.05;;;;;;;5.10;98.81;98142.31;3465726;28;20449;-51
2021/01/25 05:58:07;;;;;;;31.75;13.48;;;;;;;5.10;98.70;98152.59;3456333;28;20088;-52
2021/01/25 05:59:49;;;;;;;29.70;14.23;;;;;;;5.10;98.70;98141.47;3462408;28;20140;-52
2021/01/25 06:01:30;;;;;;;27.50;12.95;;;;;;;5.11;98.60;98136.34;3457787;28;20515;-49
2021/01/25 06:03:13;;;;;;;26.10;13.23;;;;;;;5.10;98.56;98134.59;3462889;28;20136;-50
2021/01/25 06:04:55;;;;;;;25.42;13.00;;;;;;;5.11;98.71;98131.19;3466963;28;20049;-49
2021/01/25 06:06:37;;;;;;;25.30;12.75;;;;;;;5.12;98.84;98137.19;3468437;28;20137;-53
2021/01/25 06:08:23;;;;;;;29.63;13.45;;;;;;;5.12;98.68;98114.06;3466671;28;20045;-51
2021/01/25 06:10:07;;;;;;;29.55;13.77;;;;;;;5.11;98.81;98120.03;3467332;28;20470;-49
2021/01/25 06:11:49;;;;;;;23.35;11.95;;;;;;;5.10;98.62;98121.75;3462377;28;20578;-49
2021/01/25 06:13:38;;;;;;;27.38;13.77;;;;;;;5.11;98.55;98131.19;3464932;28;20538;-49
2021/01/25 06:15:22;;;;;;;27.58;13.07;;;;;;;5.09;98.48;98120.00;3463768;28;20053;-51
2021/01/25 06:17:03;;;;;;;;;;;;;;;5.09;98.24;98114.88;3464290;28;20545;-51
2021/01/25 06:18:46;;;;;;;26.50;12.10;;;;;;;5.09;98.40;98120.00;3465314;28;19932;-54
2021/01/25 06:20:31;;;;;;;25.05;12.32;;;;;;;5.10;98.28;98118.34;3462137;28;20045;-49
2021/01/25 06:22:13;;;;;;;24.15;11.80;;;;;;;5.10;98.30;98111.47;3464372;28;20056;-54
2021/01/25 06:23:56;;;;;;;21.95;12.20;;;;;;;5.11;98.47;98099.47;3463997;28;20068;-52
2021/01/25 06:25:38;;;;;;;23.88;12.07;;;;;;;5.11;98.38;98095.22;3463521;28;20148;-52
2021/01/25 06:27:25;;;;;;;22.20;11.43;;;;;;;5.12;98.55;98088.38;3464688;28;20081;-50
2021/01/25 06:29:07;;;;;;;21.75;11.02;;;;;;;5.13;98.19;98093.53;3463369;28;20652;-49
2021/01/25 06:30:49;;;;;;;21.67;10.75;;;;;;;5.13;98.09;98090.06;3463463;28;20056;-53
2021/01/25 06:32:31;;;;;;;22.00;10.48;;;;;;;5.14;98.25;98107.22;3461681;28;20053;-52
2021/01/25 06:34:14;;;;;;;24.27;11.25;;;;;;;5.14;98.16;98099.50;3463569;28;20046;-52
2021/01/25 06:35:55;;;;;;;19.10;10.25;;;;;;;5.14;98.00;98104.66;3463008;28;20050;-53
2021/01/25 06:37:38;;;;;;;19.73;9.75;;;;;;;5.15;98.19;98104.69;3464704;28;20572;-53
2021/01/25 06:39:26;;;;;;;18.90;9.52;;;;;;;5.15;98.11;98109.81;3464927;28;20084;-52
2021/01/25 06:41:10;;;;;;;19.58;10.10;;;;;;;5.15;97.68;98117.53;3463255;28;20355;-53
2021/01/25 06:42:53;;;;;;;21.85;10.40;;;;;;;5.14;97.70;98120.94;3462132;28;20092;-53
2021/01/25 06:44:35;;;;;;;23.58;10.35;;;;;;;5.14;97.70;98112.38;3460586;28;20153;-53
2021/01/25 06:46:18;;;;;;;19.85;10.23;;;;;;;5.13;97.49;98114.09;3464553;28;20049;-53
2021/01/25 06:48:00;;;;;;;19.52;9.70;;;;;;;5.14;97.71;98108.06;3461529;28;20049;-55
2021/01/25 06:49:46;;;;;;;20.30;10.75;;;;;;;5.13;97.42;98121.78;3462534;28;20049;-54
2021/01/25 06:51:29;;;;;;;18.60;10.45;;;;;;;5.14;97.34;98117.50;3463421;28;20185;-52
2021/01/25 06:53:12;;;;;;;19.05;9.45;;;;;;;5.15;97.23;98116.66;3462999;28;20130;-52
2021/01/25 06:55:00;;;;;;;22.90;9.20;;;;;;;5.13;96.93;98111.50;3463863;28;20054;-54
2021/01/25 06:56:45;;;;;;;18.63;10.25;;;;;;;5.10;96.39;98116.63;3462705;28;20049;-52
2021/01/25 06:58:31;;;;;;;19.92;9.80;;;;;;;5.11;96.87;98113.22;3465466;28;20081;-53
2021/01/25 07:00:14;;;;;;;18.55;10.32;;;;;;;5.11;96.83;98107.19;3462078;28;20056;-51
2021/01/25 07:01:56;;;;;;;17.70;9.88;;;;;;;5.13;96.73;98110.63;3464707;28;20461;-52
2021/01/25 07:03:51;;;;;;;20.75;10.43;;;;;;;5.11;96.31;98107.19;3461106;28;20140;-50
2021/01/25 07:05:36;;;;;;;18.63;9.77;;;;;;;5.10;96.35;98108.91;3465825;28;20096;-55
2021/01/25 07:07:23;;;;;;;20.67;10.02;;;;;;;5.10;96.15;98116.63;3462490;28;20430;-55
2021/01/25 07:09:06;;;;;;;21.00;10.63;;;;;;;5.11;96.38;98109.75;3463803;28;20045;-55
2021/01/25 07:10:49;;;;;;;18.02;9.98;;;;;;;5.11;96.22;98109.75;3463252;28;20050;-55
2021/01/25 07:12:30;;;;;;;21.00;10.10;;;;;;;5.09;96.17;98112.31;3464602;28;20042;-54
2021/01/25 07:14:13;;;;;;;23.08;9.90;;;;;;;5.10;96.20;98111.47;3465805;28;20400;-52
2021/01/25 07:15:56;;;;;;;19.25;9.80;;;;;;;5.09;95.96;98121.72;3465404;28;20049;-54
2021/01/25 07:17:39;;;;;;;21.42;12.05;;;;;;;5.06;95.52;98127.72;3462564;28;20119;-55
2021/01/25 07:19:22;;;;;;;20.67;10.48;;;;;;;5.07;95.93;98111.44;3464178;28;20140;-54
2021/01/25 07:21:06;;;;;;;18.85;10.15;;;;;;;5.06;95.71;98107.16;3464324;28;20042;-55
2021/01/25 07:22:48;;;;;;;19.30;9.88;;;;;;;5.07;95.95;98110.59;3464067;28;20474;-54
2021/01/25 07:24:30;;;;;;;21.02;10.65;;;;;;;5.05;95.84;98115.69;3463016;28;20054;-55
2021/01/25 07:26:13;;;;;;;16.60;9.43;;;;;;;5.05;95.56;98109.72;3462734;28;20100;-55
2021/01/25 07:28:02;;;;;;;20.05;10.43;;;;;;;5.07;95.80;98116.56;3463965;28;20103;-55
2021/01/25 07:31:46;;;;;;;21.73;10.93;;;;;;;5.08;95.83;98095.19;3461403;28;20053;-48
2021/01/25 07:33:28;;;;;;;21.60;11.45;;;;;;;5.09;95.56;98096.03;3463600;28;20148;-51
2021/01/25 07:35:11;;;;;;;26.83;11.10;;;;;;;5.09;95.46;98096.88;3465075;28;20616;-51
2021/01/25 07:36:54;;;;;;;20.65;11.05;;;;;;;5.10;95.26;98092.63;3462192;28;20091;-52
2021/01/25 07:38:35;;;;;;;19.80;10.90;;;;;;;5.09;94.98;98094.31;3462200;28;20429;-51
2021/01/25 07:40:18;;;;;;;24.38;12.48;;;;;;;5.09;94.83;98096.88;3462634;28;20057;-48
2021/01/25 07:42:01;;;;;;;20.00;11.38;;;;;;;5.11;94.86;98107.19;3463748;28;20061;-51
2021/01/25 07:43:42;;;;;;;21.35;11.18;;;;;;;5.08;94.62;98100.31;3462489;28;20053;-50
2021/01/25 07:45:24;;;;;;;20.92;11.43;;;;;;;5.10;94.64;98097.78;3465032;28;20050;-55
2021/01/25 07:47:05;;;;;;;22.20;11.18;;;;;;;5.10;94.89;98087.50;3456401;28;20136;-52
2021/01/25 07:48:51;;;;;;;19.98;10.65;;;;;;;5.12;95.04;98088.38;3462375;28;20042;-51
2021/01/25 07:50:33;;;;;;;20.10;11.23;;;;;;;5.14;94.76;98081.53;3461516;28;20081;-52
2021/01/25 07:52:18;;;;;;;22.48;11.15;;;;;;;5.17;95.30;98074.69;3464204;28;20054;-51
2021/01/25 07:54:01;;;;;;;25.90;11.77;;;;;;;5.18;94.80;98070.41;3462220;28;20049;-53
2021/01/25 07:55:43;;;;;;;23.05;11.75;;;;;;;5.20;94.96;98062.72;3462288;28;20045;-50
2021/01/25 07:57:24;;;;;;;23.05;11.77;;;;;;;5.23;95.24;98060.19;3457934;28;20470;-52
2021/01/25 07:59:14;;;;;;;20.98;10.80;;;;;;;5.25;95.08;98055.91;3463483;28;20083;-50
2021/01/25 08:00:56;;;;;;;21.63;11.07;;;;;;;5.23;94.76;98055.91;3463652;28;20049;-50